createdAt,value
2022-11-17T00:02:26.935Z,9.80
2022-11-17T00:04:59.608Z,9.80
2022-11-17T00:07:32.381Z,9.70
2022-11-17T00:10:06.003Z,9.70
2022-11-17T00:12:54.265Z,9.70
2022-11-17T00:15:26.797Z,9.70
2022-11-17T00:18:15.644Z,9.70
2022-11-17T00:21:04.118Z,9.70
2022-11-17T00:23:53.558Z,9.60
2022-11-17T00:26:29.148Z,9.50
2022-11-17T00:29:05.207Z,9.50
2022-11-17T00:31:53.681Z,9.50
2022-11-17T00:34:26.364Z,9.40
2022-11-17T00:36:58.947Z,9.40
2022-11-17T00:39:31.743Z,9.40
2022-11-17T00:42:04.826Z,9.40
2022-11-17T00:44:37.536Z,9.50
2022-11-17T00:47:10.095Z,9.50
2022-11-17T00:49:42.672Z,9.50
2022-11-17T00:52:15.414Z,9.50
2022-11-17T00:54:48.160Z,9.40
2022-11-17T00:57:20.817Z,9.40
2022-11-17T00:59:53.404Z,9.40
2022-11-17T01:02:26.076Z,9.40
2022-11-17T01:04:58.685Z,9.40
2022-11-17T01:07:31.610Z,9.40
2022-11-17T01:10:04.770Z,9.40
2022-11-17T01:12:37.485Z,9.40
2022-11-17T01:15:10.812Z,9.50
2022-11-17T01:17:43.634Z,9.50
2022-11-17T01:20:16.315Z,9.50
2022-11-17T01:22:49.139Z,9.50
2022-11-17T01:25:21.642Z,9.40
2022-11-17T01:27:54.309Z,9.40
2022-11-17T01:30:26.846Z,9.40
2022-11-17T01:32:59.451Z,9.40
2022-11-17T01:35:34.802Z,9.30
2022-11-17T01:38:07.395Z,9.30
2022-11-17T01:40:39.990Z,9.30
2022-11-17T01:43:12.542Z,9.30
2022-11-17T01:45:45.662Z,9.20
2022-11-17T01:48:18.329Z,9.20
2022-11-17T01:50:52.202Z,9.20
2022-11-17T01:53:26.593Z,9.20
2022-11-17T01:56:05.572Z,9.20
2022-11-17T01:58:44.373Z,9.20
2022-11-17T02:01:17.122Z,9.20
2022-11-17T02:03:51.858Z,9.20
2022-11-17T02:06:33.725Z,9.20
2022-11-17T02:09:06.609Z,9.20
2022-11-17T02:11:39.373Z,9.30
2022-11-17T02:14:12.102Z,9.20
2022-11-17T02:16:44.931Z,9.20
2022-11-17T02:19:17.821Z,9.10
2022-11-17T02:21:57.508Z,9.10
2022-11-17T02:24:45.675Z,9.10
2022-11-17T02:27:49.698Z,9.00
2022-11-17T02:30:23.844Z,9.00
2022-11-17T02:33:17.313Z,9.00
2022-11-17T02:35:58.755Z,9.00
2022-11-17T02:38:54.788Z,9.00
2022-11-17T02:41:29.742Z,9.00
2022-11-17T02:44:08.559Z,9.00
2022-11-17T02:46:55.756Z,9.00
2022-11-17T02:49:36.078Z,9.10
2022-11-17T02:52:09.710Z,9.10
2022-11-17T02:54:42.443Z,9.10
2022-11-17T02:57:32.260Z,9.10
2022-11-17T03:00:10.302Z,9.10
2022-11-17T03:02:58.684Z,9.10
2022-11-17T03:05:40.723Z,9.10
2022-11-17T03:08:14.044Z,9.10
2022-11-17T03:11:03.726Z,9.10
2022-11-17T03:13:53.651Z,9.10
2022-11-17T03:16:32.738Z,9.10
2022-11-17T03:19:14.801Z,9.10
2022-11-17T03:22:18.510Z,9.10
2022-11-17T03:24:58.453Z,9.10
2022-11-17T03:27:37.572Z,9.10
2022-11-17T03:30:12.238Z,9.10
2022-11-17T03:32:50.726Z,9.00
2022-11-17T03:35:29.218Z,9.10
2022-11-17T03:38:08.527Z,9.10
2022-11-17T03:40:47.049Z,9.10
2022-11-17T03:43:21.982Z,9.00
2022-11-17T03:45:59.352Z,9.00
2022-11-17T03:48:52.486Z,9.00
2022-11-17T03:51:28.244Z,9.00
2022-11-17T03:54:01.643Z,9.00
2022-11-17T03:56:50.902Z,9.00
2022-11-17T03:59:30.009Z,9.00
2022-11-17T04:02:02.998Z,9.00
2022-11-17T04:04:50.790Z,9.00
2022-11-17T04:07:23.458Z,8.90
2022-11-17T04:09:56.205Z,8.90
2022-11-17T04:12:44.796Z,8.90
2022-11-17T04:15:33.192Z,8.80
2022-11-17T04:18:06.830Z,8.80
2022-11-17T04:20:39.532Z,8.80
2022-11-17T04:23:15.049Z,8.80
2022-11-17T04:26:06.072Z,8.80
2022-11-17T04:28:42.108Z,8.80
2022-11-17T04:31:18.036Z,8.80
2022-11-17T04:33:54.823Z,8.90
2022-11-17T04:36:34.771Z,8.90
2022-11-17T04:39:07.372Z,8.90
2022-11-17T04:41:55.909Z,8.90
2022-11-17T04:44:31.264Z,8.90
2022-11-17T04:47:04.651Z,8.90
2022-11-17T04:49:37.272Z,8.90
2022-11-17T04:52:09.787Z,8.80
2022-11-17T04:54:42.509Z,8.80
2022-11-17T04:57:15.081Z,8.80
2022-11-17T04:59:47.625Z,8.70
2022-11-17T05:02:20.244Z,8.70
2022-11-17T05:05:00.678Z,8.70
2022-11-17T05:07:33.467Z,8.70
2022-11-17T05:10:06.991Z,8.70
2022-11-17T05:12:55.037Z,8.70
2022-11-17T05:15:43.378Z,8.70
2022-11-17T05:18:15.928Z,8.70
2022-11-17T05:20:48.539Z,8.70
2022-11-17T05:23:36.758Z,8.80
2022-11-17T05:26:09.532Z,8.80
2022-11-17T05:28:42.654Z,8.80
2022-11-17T05:31:16.277Z,8.80
2022-11-17T05:33:48.954Z,8.80
2022-11-17T05:36:23.542Z,8.80
2022-11-17T05:38:56.751Z,8.90
2022-11-17T05:41:29.740Z,8.80
2022-11-17T05:44:02.485Z,8.80
2022-11-17T05:46:35.075Z,8.80
2022-11-17T05:49:07.794Z,8.70
2022-11-17T05:51:40.416Z,8.70
2022-11-17T05:54:13.094Z,8.70
2022-11-17T05:57:04.106Z,8.70
2022-11-17T05:59:46.969Z,8.70
2022-11-17T06:02:25.493Z,8.70
2022-11-17T06:04:58.220Z,8.70
2022-11-17T06:07:31.152Z,8.80
2022-11-17T06:10:04.188Z,8.80
2022-11-17T06:12:36.787Z,8.80
2022-11-17T06:15:10.263Z,8.80
2022-11-17T06:17:51.974Z,8.80
2022-11-17T06:20:30.144Z,8.70
2022-11-17T06:23:06.737Z,8.70
2022-11-17T06:25:40.221Z,8.70
2022-11-17T06:28:17.585Z,8.60
2022-11-17T06:30:50.895Z,8.60
2022-11-17T06:33:24.528Z,8.60
2022-11-17T06:36:00.528Z,8.60
2022-11-17T06:38:36.181Z,8.60
2022-11-17T06:41:11.868Z,8.60
2022-11-17T06:43:45.046Z,8.60
2022-11-17T06:46:20.732Z,8.80
2022-11-17T06:48:55.383Z,8.70
2022-11-17T06:51:29.377Z,8.80
2022-11-17T06:54:02.306Z,8.80
2022-11-17T06:56:35.929Z,8.80
2022-11-17T06:59:08.952Z,8.80
2022-11-17T07:01:41.512Z,8.80
2022-11-17T07:04:14.345Z,8.90
2022-11-17T07:06:47.218Z,8.90
2022-11-17T07:09:20.565Z,9.00
2022-11-17T07:11:53.415Z,9.00
2022-11-17T07:14:26.140Z,9.20
2022-11-17T07:16:58.716Z,9.10
2022-11-17T07:19:31.386Z,9.10
2022-11-17T07:22:05.175Z,9.20
2022-11-17T07:24:37.855Z,9.20
2022-11-17T07:27:10.637Z,9.30
2022-11-17T07:29:43.436Z,9.20
2022-11-17T07:32:16.300Z,9.20
2022-11-17T07:34:49.335Z,9.30
2022-11-17T07:37:22.228Z,9.30
2022-11-17T07:39:55.191Z,9.30
2022-11-17T07:42:27.930Z,9.30
2022-11-17T07:45:00.810Z,9.30
2022-11-17T07:47:33.478Z,9.40
2022-11-17T07:50:06.956Z,9.40
2022-11-17T07:52:41.600Z,9.40
2022-11-17T07:55:14.743Z,9.50
2022-11-17T07:57:47.479Z,9.50
2022-11-17T08:00:20.506Z,9.60
2022-11-17T08:02:53.327Z,9.70
2022-11-17T08:05:30.931Z,9.80
2022-11-17T08:08:04.077Z,9.90
2022-11-17T08:10:37.354Z,10.00
2022-11-17T08:13:11.773Z,10.10
2022-11-17T08:15:44.704Z,10.20
2022-11-17T08:18:17.770Z,10.30
2022-11-17T08:20:50.526Z,10.30
2022-11-17T08:23:23.148Z,10.30
2022-11-17T08:25:56.110Z,10.30
2022-11-17T08:28:28.825Z,10.40
2022-11-17T08:31:04.133Z,10.40
2022-11-17T08:33:36.683Z,10.40
2022-11-17T08:36:11.279Z,10.40
2022-11-17T08:38:44.685Z,10.40
2022-11-17T08:41:17.486Z,10.40
2022-11-17T08:43:52.201Z,10.30
2022-11-17T08:46:27.319Z,10.20
2022-11-17T08:49:01.568Z,10.30
2022-11-17T08:51:34.352Z,10.20
2022-11-17T08:54:07.181Z,10.20
2022-11-17T08:56:40.107Z,10.20
2022-11-17T08:59:14.564Z,10.20
2022-11-17T09:01:47.292Z,10.30
2022-11-17T09:04:20.224Z,10.40
2022-11-17T09:06:53.201Z,10.50
2022-11-17T09:09:26.235Z,10.60
2022-11-17T09:11:59.872Z,10.60
2022-11-17T09:14:32.722Z,10.70
2022-11-17T09:17:05.464Z,10.80
2022-11-17T09:19:38.180Z,10.80
2022-11-17T09:22:10.937Z,10.90
2022-11-17T09:24:43.655Z,11.00
2022-11-17T09:27:16.531Z,10.80
2022-11-17T09:29:49.246Z,11.10
2022-11-17T09:32:21.937Z,11.20
2022-11-17T09:34:54.852Z,11.20
2022-11-17T09:37:28.855Z,11.30
2022-11-17T09:40:01.629Z,11.30
2022-11-17T09:42:41.405Z,11.40
2022-11-17T09:45:23.969Z,11.50
2022-11-17T09:48:38.770Z,11.60
2022-11-17T09:51:08.655Z,11.60
2022-11-17T09:53:49.108Z,11.70
2022-11-17T09:56:22.098Z,11.70
2022-11-17T09:59:01.885Z,11.70
2022-11-17T10:01:34.858Z,11.60
2022-11-17T10:04:14.064Z,11.70
2022-11-17T10:06:50.180Z,11.80
2022-11-17T10:09:42.035Z,11.90
2022-11-17T10:12:18.436Z,11.90
2022-11-17T10:14:53.166Z,12.00
2022-11-17T10:17:26.450Z,12.10
2022-11-17T10:20:01.270Z,12.10
2022-11-17T10:22:36.641Z,12.20
2022-11-17T10:25:24.926Z,12.20
2022-11-17T10:27:57.641Z,12.20
2022-11-17T10:30:31.080Z,12.20
2022-11-17T10:33:04.378Z,12.20
2022-11-17T10:35:37.210Z,12.20
2022-11-17T10:38:22.074Z,12.20
2022-11-17T10:40:55.844Z,12.30
2022-11-17T10:43:33.316Z,12.40
2022-11-17T10:46:15.265Z,12.40
2022-11-17T10:49:01.042Z,12.40
2022-11-17T10:51:35.833Z,12.40
2022-11-17T10:54:24.113Z,12.40
2022-11-17T10:57:00.476Z,12.50
2022-11-17T10:59:43.997Z,12.60
2022-11-17T11:02:35.472Z,12.70
2022-11-17T11:05:15.595Z,12.70
2022-11-17T11:07:48.642Z,12.70
2022-11-17T11:10:37.255Z,12.80
2022-11-17T11:13:26.890Z,12.80
2022-11-17T11:16:01.964Z,12.90
2022-11-17T11:18:35.420Z,12.90
2022-11-17T11:21:21.206Z,13.00
2022-11-17T11:24:10.710Z,13.10
2022-11-17T11:26:57.661Z,13.10
2022-11-17T11:29:56.874Z,13.20
2022-11-17T11:32:54.609Z,13.30
2022-11-17T11:35:46.425Z,13.20
2022-11-17T11:38:35.854Z,13.30
2022-11-17T11:41:25.837Z,13.40
2022-11-17T11:44:20.103Z,13.50
2022-11-17T11:47:03.914Z,13.50
2022-11-17T11:50:06.396Z,13.40
2022-11-17T11:52:45.493Z,13.40
2022-11-17T11:55:23.512Z,13.40
2022-11-17T11:58:06.588Z,13.40
2022-11-17T12:00:42.276Z,13.50
2022-11-17T12:03:21.720Z,13.50
2022-11-17T12:06:27.217Z,13.60
2022-11-17T12:09:18.136Z,13.70
2022-11-17T12:12:01.139Z,13.70
2022-11-17T12:14:38.452Z,13.50
2022-11-17T12:17:24.463Z,13.60
2022-11-17T12:20:04.601Z,13.50
2022-11-17T12:22:54.892Z,13.50
2022-11-17T12:25:31.449Z,13.50
2022-11-17T12:28:29.816Z,13.50
2022-11-17T12:31:10.192Z,13.60
2022-11-17T12:33:53.045Z,13.70
2022-11-17T12:36:33.986Z,13.80
2022-11-17T12:39:29.314Z,13.80
2022-11-17T12:42:06.733Z,13.80
2022-11-17T12:44:50.965Z,13.90
2022-11-17T12:47:27.557Z,13.90
2022-11-17T12:50:16.911Z,14.00
2022-11-17T12:53:20.905Z,14.00
2022-11-17T12:56:10.404Z,14.00
2022-11-17T12:58:59.236Z,13.90
2022-11-17T13:01:55.033Z,13.90
2022-11-17T13:04:38.113Z,13.90
2022-11-17T13:07:21.526Z,13.80
2022-11-17T13:09:57.617Z,13.60
2022-11-17T13:12:33.550Z,13.50
2022-11-17T13:15:07.535Z,13.40
2022-11-17T13:17:43.495Z,13.30
2022-11-17T13:20:28.196Z,13.20
2022-11-17T13:23:07.343Z,13.10
2022-11-17T13:25:40.096Z,13.10
2022-11-17T13:28:29.594Z,13.10
2022-11-17T13:31:02.741Z,13.10
2022-11-17T13:33:40.163Z,13.10
2022-11-17T13:36:20.881Z,13.20
2022-11-17T13:38:57.586Z,13.40
2022-11-17T13:41:38.303Z,13.50
2022-11-17T13:44:15.731Z,13.60
2022-11-17T13:46:48.703Z,13.70
2022-11-17T13:49:38.437Z,13.70
2022-11-17T13:52:35.257Z,13.70
2022-11-17T13:55:20.341Z,13.70
2022-11-17T13:58:00.592Z,13.70
2022-11-17T14:00:35.066Z,13.60
2022-11-17T14:03:29.290Z,13.50
2022-11-17T14:06:04.084Z,13.50
2022-11-17T14:08:38.160Z,13.40
2022-11-17T14:11:11.451Z,13.40
2022-11-17T14:13:50.130Z,13.20
2022-11-17T14:16:29.371Z,13.20
2022-11-17T14:19:07.097Z,13.10
2022-11-17T14:22:21.406Z,13.10
2022-11-17T14:24:56.356Z,13.20
2022-11-17T14:27:30.793Z,13.20
2022-11-17T14:30:05.788Z,13.20
2022-11-17T14:32:42.791Z,13.20
2022-11-17T14:37:55.542Z,13.10
2022-11-17T14:40:29.636Z,13.10
2022-11-17T14:43:03.178Z,13.10
2022-11-17T14:45:36.021Z,13.10
2022-11-17T14:48:13.523Z,13.10
2022-11-17T14:51:00.323Z,13.10
2022-11-17T14:53:33.576Z,13.00
2022-11-17T14:56:09.505Z,13.10
2022-11-17T14:58:42.477Z,13.00
2022-11-17T15:01:25.095Z,13.00
2022-11-17T15:04:15.461Z,13.00
2022-11-17T15:06:54.395Z,12.90
2022-11-17T15:09:27.169Z,12.90
2022-11-17T15:12:00.456Z,12.90
2022-11-17T15:14:33.284Z,12.90
2022-11-17T15:17:11.280Z,12.80
2022-11-17T15:19:47.447Z,12.80
2022-11-17T15:22:21.062Z,12.80
2022-11-17T15:24:53.904Z,12.70
2022-11-17T15:27:26.858Z,12.70
2022-11-17T15:30:00.192Z,12.70
2022-11-17T15:32:33.636Z,12.60
2022-11-17T15:35:08.376Z,12.60
2022-11-17T15:37:41.188Z,12.50
2022-11-17T15:40:19.077Z,12.50
2022-11-17T15:42:55.549Z,12.40
2022-11-17T15:45:29.328Z,12.40
2022-11-17T15:48:03.023Z,12.40
2022-11-17T15:50:36.781Z,12.30
2022-11-17T15:53:09.548Z,12.20
2022-11-17T15:55:42.859Z,12.20
2022-11-17T15:58:16.900Z,12.20
2022-11-17T16:00:49.970Z,12.20
2022-11-17T16:03:22.697Z,12.10
2022-11-17T16:05:55.579Z,12.10
2022-11-17T16:08:28.326Z,12.00
2022-11-17T16:11:01.321Z,12.00
2022-11-17T16:13:34.212Z,12.00
2022-11-17T16:16:08.305Z,11.90
2022-11-17T16:18:41.099Z,11.90
2022-11-17T16:21:15.145Z,11.90
2022-11-17T16:23:51.642Z,11.80
2022-11-17T16:26:26.588Z,11.80
2022-11-17T16:29:00.989Z,11.80
2022-11-17T16:31:36.200Z,11.70
2022-11-17T16:34:15.754Z,11.70
2022-11-17T16:36:48.420Z,11.70
2022-11-17T16:39:21.213Z,11.60
2022-11-17T16:41:55.378Z,11.50
2022-11-17T16:44:28.040Z,11.50
2022-11-17T16:47:00.719Z,11.40
2022-11-17T16:49:35.619Z,11.40
2022-11-17T16:52:08.592Z,11.40
2022-11-17T16:54:43.279Z,11.40
2022-11-17T16:57:18.253Z,11.30
2022-11-17T16:59:52.880Z,11.30
2022-11-17T17:02:26.305Z,11.20
2022-11-17T17:04:58.936Z,11.20
2022-11-17T17:07:33.049Z,11.20
2022-11-17T17:10:08.752Z,11.10
2022-11-17T17:12:41.739Z,11.10
2022-11-17T17:15:14.589Z,11.10
2022-11-17T17:17:47.453Z,11.10
2022-11-17T17:20:20.825Z,11.00
2022-11-17T17:22:56.854Z,11.00
2022-11-17T17:25:33.932Z,11.00
2022-11-17T17:28:06.591Z,10.90
2022-11-17T17:30:41.258Z,10.90
2022-11-17T17:33:15.028Z,10.90
2022-11-17T17:35:47.982Z,10.80
2022-11-17T17:38:20.863Z,10.80
2022-11-17T17:40:53.595Z,10.80
2022-11-17T17:43:26.103Z,10.70
2022-11-17T17:46:02.954Z,10.70
2022-11-17T17:48:37.366Z,10.70
2022-11-17T17:51:14.585Z,10.80
2022-11-17T17:53:51.381Z,10.80
2022-11-17T17:56:25.060Z,10.70
2022-11-17T17:58:58.949Z,10.70
2022-11-17T18:01:34.989Z,10.70
2022-11-17T18:04:15.334Z,10.70
2022-11-17T18:06:49.223Z,10.80
2022-11-17T18:09:22.501Z,10.80
2022-11-17T18:11:55.675Z,10.80
2022-11-17T18:14:28.657Z,10.80
2022-11-17T18:17:01.458Z,10.80
2022-11-17T18:19:34.274Z,10.80
2022-11-17T18:22:07.238Z,10.80
2022-11-17T18:24:40.059Z,10.80
2022-11-17T18:27:12.704Z,10.80
2022-11-17T18:29:46.896Z,10.80
2022-11-17T18:32:19.819Z,10.80
2022-11-17T18:34:52.753Z,10.90
2022-11-17T18:37:25.508Z,10.90
2022-11-17T18:39:58.294Z,10.90
2022-11-17T18:42:32.910Z,10.90
2022-11-17T18:45:05.904Z,10.90
2022-11-17T18:47:38.752Z,10.90
2022-11-17T18:50:11.482Z,10.90
2022-11-17T18:52:44.241Z,11.00
2022-11-17T18:55:17.104Z,11.00
2022-11-17T18:57:49.820Z,11.00
2022-11-17T19:00:23.475Z,11.00
2022-11-17T19:02:56.266Z,11.00
2022-11-17T19:05:29.001Z,11.00
2022-11-17T19:08:01.798Z,11.00
2022-11-17T19:10:34.599Z,11.00
2022-11-17T19:13:07.423Z,11.00
2022-11-17T19:15:40.209Z,11.00
2022-11-17T19:18:13.155Z,11.00
2022-11-17T19:20:46.384Z,11.10
2022-11-17T19:23:19.481Z,11.10
2022-11-17T19:25:52.101Z,11.10
2022-11-17T19:28:24.871Z,11.10
2022-11-17T19:31:02.378Z,11.10
2022-11-17T19:33:36.766Z,11.10
2022-11-17T19:36:13.952Z,11.10
2022-11-17T19:38:50.838Z,11.10
2022-11-17T19:41:26.369Z,11.10
2022-11-17T19:44:02.118Z,11.10
2022-11-17T19:46:36.558Z,11.10
2022-11-17T19:49:12.800Z,11.10
2022-11-17T19:51:45.554Z,11.10
2022-11-17T19:54:18.229Z,11.10
2022-11-17T19:56:50.881Z,11.10
2022-11-17T19:59:23.518Z,11.20
2022-11-17T20:01:56.423Z,11.20
2022-11-17T20:04:29.314Z,11.20
2022-11-17T20:07:01.946Z,11.20
2022-11-17T20:09:35.920Z,11.30
2022-11-17T20:12:08.657Z,11.30
2022-11-17T20:14:41.447Z,11.20
2022-11-17T20:17:14.296Z,11.30
2022-11-17T20:19:46.987Z,11.30
2022-11-17T20:22:19.488Z,11.30
2022-11-17T20:24:52.623Z,11.30
2022-11-17T20:27:26.001Z,11.30
2022-11-17T20:29:59.419Z,11.30
2022-11-17T20:32:32.841Z,11.30
2022-11-17T20:35:06.570Z,11.30
2022-11-17T20:37:39.218Z,11.30
2022-11-17T20:40:12.488Z,11.30
2022-11-17T20:42:45.391Z,11.30
2022-11-17T20:45:18.323Z,11.30
2022-11-17T20:47:51.340Z,11.40
2022-11-17T20:50:24.016Z,11.40
2022-11-17T20:52:56.642Z,11.40
2022-11-17T20:55:29.194Z,11.40
2022-11-17T20:58:01.788Z,11.40
2022-11-17T21:00:35.392Z,11.40
2022-11-17T21:03:08.553Z,11.40
2022-11-17T21:05:41.412Z,11.40
2022-11-17T21:08:14.056Z,11.40
2022-11-17T21:10:46.613Z,11.30
2022-11-17T21:13:19.348Z,11.30
2022-11-17T21:16:12.444Z,11.30
2022-11-17T21:18:47.431Z,11.30
2022-11-17T21:21:20.389Z,11.20
2022-11-17T21:23:54.552Z,11.20
2022-11-17T21:26:28.183Z,11.20
2022-11-17T21:29:06.194Z,11.20
2022-11-17T21:31:40.274Z,11.20
2022-11-17T21:34:16.924Z,11.20
2022-11-17T21:36:49.658Z,11.20
2022-11-17T21:39:22.420Z,11.20
2022-11-17T21:41:55.104Z,11.20
2022-11-17T21:44:28.002Z,11.20
2022-11-17T21:47:01.012Z,11.20
2022-11-17T21:49:33.955Z,11.10
2022-11-17T21:52:07.060Z,11.20
2022-11-17T21:54:39.721Z,11.20
2022-11-17T21:57:12.543Z,11.20
2022-11-17T21:59:46.975Z,11.20
2022-11-17T22:02:19.795Z,11.20
2022-11-17T22:04:52.578Z,11.20
2022-11-17T22:07:25.224Z,11.10
2022-11-17T22:09:57.792Z,11.20
2022-11-17T22:12:30.469Z,11.20
2022-11-17T22:15:07.197Z,11.20
2022-11-17T22:17:43.496Z,11.20
2022-11-17T22:20:16.681Z,11.20
2022-11-17T22:22:54.626Z,11.20
2022-11-17T22:28:20.171Z,11.30
2022-11-17T22:30:53.465Z,11.30
2022-11-17T22:33:26.264Z,11.20
2022-11-17T22:36:00.966Z,11.30
2022-11-17T22:38:33.998Z,11.30
2022-11-17T22:41:08.189Z,11.30
2022-11-17T22:43:40.847Z,11.30
2022-11-17T22:46:13.611Z,11.30
2022-11-17T22:48:46.693Z,11.30
2022-11-17T22:51:35.764Z,11.30
2022-11-17T22:54:09.029Z,11.30
2022-11-17T22:56:41.832Z,11.30
2022-11-17T22:59:14.648Z,11.20
2022-11-17T23:01:47.794Z,11.30
2022-11-17T23:04:20.490Z,11.30
2022-11-17T23:06:53.183Z,11.30
2022-11-17T23:09:25.953Z,11.30
2022-11-17T23:11:58.647Z,11.30
2022-11-17T23:14:31.264Z,11.30
2022-11-17T23:17:04.114Z,11.30
2022-11-17T23:19:36.695Z,11.30
2022-11-17T23:22:09.351Z,11.20
2022-11-17T23:24:42.005Z,11.30
2022-11-17T23:27:14.632Z,11.30
2022-11-17T23:29:47.286Z,11.30
2022-11-17T23:32:20.301Z,11.30
2022-11-17T23:34:52.999Z,11.30
2022-11-17T23:37:25.600Z,11.30
2022-11-17T23:39:58.285Z,11.30
2022-11-17T23:42:32.612Z,11.20
2022-11-17T23:45:07.662Z,11.20
2022-11-17T23:47:40.948Z,11.20
2022-11-17T23:50:13.783Z,11.20
2022-11-17T23:52:46.418Z,11.20
2022-11-17T23:55:19.251Z,11.30
2022-11-17T23:57:53.403Z,11.20
